createdAt,value
2022-10-02T00:03:06.946Z,16.10
2022-10-02T00:08:39.314Z,16.70
2022-10-02T00:14:15.421Z,14.57
2022-10-02T00:19:38.192Z,13.77
2022-10-02T00:25:41.783Z,10.70
2022-10-02T00:31:47.427Z,8.17
2022-10-02T00:37:59.952Z,5.20
2022-10-02T00:43:55.427Z,5.40
2022-10-02T00:49:53.312Z,4.43
2022-10-02T00:55:50.781Z,4.90
2022-10-02T01:01:32.868Z,8.25
2022-10-02T01:06:55.096Z,6.47
2022-10-02T01:12:21.158Z,3.77
2022-10-02T01:17:48.007Z,5.97
2022-10-02T01:23:33.097Z,6.55
2022-10-02T01:28:55.315Z,8.27
2022-10-02T01:34:17.651Z,5.08
2022-10-02T01:39:42.240Z,9.53
2022-10-02T01:45:04.976Z,7.63
2022-10-02T01:50:38.511Z,5.63
2022-10-02T01:56:26.243Z,6.67
2022-10-02T02:02:10.330Z,6.00
2022-10-02T02:07:58.545Z,6.37
2022-10-02T02:13:31.322Z,5.97
2022-10-02T02:19:06.305Z,4.17
2022-10-02T02:24:45.086Z,6.27
2022-10-02T02:30:14.259Z,7.93
2022-10-02T02:35:41.682Z,8.27
2022-10-02T02:41:06.748Z,6.10
2022-10-02T02:46:33.545Z,5.33
2022-10-02T02:51:58.690Z,8.27
2022-10-02T02:57:23.688Z,6.43
2022-10-02T03:02:45.884Z,5.53
2022-10-02T03:08:13.352Z,7.45
2022-10-02T03:13:40.416Z,6.53
2022-10-02T03:19:16.446Z,7.90
2022-10-02T03:25:11.117Z,10.23
2022-10-02T03:30:35.423Z,9.83
2022-10-02T03:35:57.901Z,8.13
2022-10-02T03:41:20.041Z,9.10
2022-10-02T03:46:42.216Z,9.13
2022-10-02T03:52:05.204Z,9.00
2022-10-02T03:57:33.519Z,8.43
2022-10-02T04:03:05.874Z,11.63
2022-10-02T04:08:44.054Z,11.00
2022-10-02T04:14:22.706Z,8.67
2022-10-02T04:19:58.861Z,8.37
2022-10-02T04:25:37.124Z,11.23
2022-10-02T04:31:02.082Z,8.18
2022-10-02T04:37:05.331Z,6.63
2022-10-02T04:42:57.967Z,7.00
2022-10-02T04:48:40.701Z,8.70
2022-10-02T04:54:34.430Z,9.47
2022-10-02T05:00:18.716Z,9.03
2022-10-02T05:06:02.282Z,10.33
2022-10-02T05:11:54.115Z,9.83
2022-10-02T05:17:38.921Z,11.67
2022-10-02T05:23:23.587Z,10.53
2022-10-02T05:34:46.277Z,11.13
2022-10-02T05:40:41.358Z,8.77
2022-10-02T05:46:08.438Z,12.00
2022-10-02T05:52:04.568Z,8.03
2022-10-02T05:57:43.186Z,10.40
2022-10-02T06:03:41.577Z,10.13
2022-10-02T06:09:10.600Z,8.83
2022-10-02T06:14:54.768Z,9.80
2022-10-02T06:20:46.185Z,9.07
2022-10-02T06:26:16.360Z,12.90
2022-10-02T06:32:07.527Z,9.10
2022-10-02T06:37:51.345Z,10.10
2022-10-02T06:43:43.890Z,11.00
2022-10-02T06:49:33.678Z,8.85
2022-10-02T06:55:14.971Z,13.03
2022-10-02T07:00:59.549Z,13.67
2022-10-02T07:06:45.484Z,11.50
2022-10-02T07:12:37.226Z,10.83
2022-10-02T07:18:25.188Z,7.53
2022-10-02T07:24:02.176Z,12.23
2022-10-02T07:29:33.357Z,9.90
2022-10-02T07:35:20.021Z,7.60
2022-10-02T07:40:56.011Z,9.37
2022-10-02T07:46:23.845Z,10.03
2022-10-02T07:52:02.642Z,11.68
2022-10-02T07:57:54.432Z,15.07
2022-10-02T08:03:36.560Z,10.80
2022-10-02T08:09:32.178Z,8.48
2022-10-02T08:14:58.090Z,9.83
2022-10-02T08:20:34.998Z,8.30
2022-10-02T08:26:18.325Z,7.17
2022-10-02T08:31:47.634Z,13.15
2022-10-02T08:37:33.571Z,9.50
2022-10-02T08:43:43.603Z,6.28
2022-10-02T08:55:21.009Z,9.80
2022-10-02T09:01:12.812Z,7.10
2022-10-02T09:07:01.705Z,13.40
2022-10-02T09:13:16.010Z,7.92
2022-10-02T09:19:20.269Z,9.70
2022-10-02T09:25:05.191Z,8.25
2022-10-02T09:30:54.303Z,12.07
2022-10-02T09:36:46.180Z,12.03
2022-10-02T09:42:50.029Z,10.87
2022-10-02T09:48:47.572Z,15.73
2022-10-02T09:55:00.477Z,9.80
2022-10-02T10:00:47.090Z,5.43
2022-10-02T10:06:26.860Z,12.67
2022-10-02T10:12:27.444Z,9.27
2022-10-02T10:18:24.686Z,12.97
2022-10-02T10:24:23.567Z,9.55
2022-10-02T10:30:27.035Z,10.90
2022-10-02T10:36:36.800Z,10.20
2022-10-02T10:42:49.920Z,13.50
2022-10-02T10:48:28.397Z,15.27
2022-10-02T10:54:16.505Z,7.30
2022-10-02T10:59:49.471Z,10.10
2022-10-02T11:05:34.288Z,8.03
2022-10-02T11:11:24.547Z,7.67
2022-10-02T11:17:21.413Z,10.33
2022-10-02T11:22:51.900Z,9.43
2022-10-02T11:28:36.912Z,8.20
2022-10-02T11:34:50.957Z,10.37
2022-10-02T11:40:31.711Z,5.00
2022-10-02T11:46:34.184Z,4.10
2022-10-02T11:52:19.390Z,5.97
2022-10-02T11:58:26.413Z,6.80
2022-10-02T12:04:22.226Z,6.73
2022-10-02T12:10:14.060Z,4.65
2022-10-02T12:16:09.467Z,7.50
2022-10-02T12:22:09.661Z,9.95
2022-10-02T12:27:49.309Z,6.80
2022-10-02T12:33:32.808Z,4.83
2022-10-02T12:39:28.361Z,3.55
2022-10-02T12:45:16.906Z,8.75
2022-10-02T12:51:05.631Z,4.62
2022-10-02T12:56:54.375Z,11.30
2022-10-02T13:03:00.858Z,8.68
2022-10-02T13:08:51.258Z,6.93
2022-10-02T13:14:47.461Z,7.33
2022-10-02T13:20:15.018Z,4.30
2022-10-02T13:25:45.882Z,9.33
2022-10-02T13:31:16.009Z,5.67
2022-10-02T13:42:24.430Z,5.70
2022-10-02T13:48:20.046Z,7.67
2022-10-02T13:54:14.621Z,4.53
2022-10-02T14:00:07.038Z,4.70
2022-10-02T14:05:43.520Z,6.07
2022-10-02T14:11:39.259Z,6.33
2022-10-02T14:23:22.046Z,7.80
2022-10-02T14:29:04.935Z,7.70
2022-10-02T14:34:59.380Z,3.87
2022-10-02T14:40:27.792Z,5.83
2022-10-02T14:46:22.505Z,5.17
2022-10-02T14:52:13.217Z,7.30
2022-10-02T14:58:05.763Z,4.53
2022-10-02T15:03:56.091Z,5.87
2022-10-02T15:09:37.246Z,6.17
2022-10-02T15:15:34.607Z,5.53
2022-10-02T15:21:10.151Z,4.03
2022-10-02T15:26:56.867Z,4.80
2022-10-02T15:32:52.799Z,3.97
2022-10-02T15:38:58.316Z,6.53
2022-10-02T15:44:51.077Z,1.70
2022-10-02T15:56:24.191Z,6.70
2022-10-02T16:02:13.997Z,3.73
2022-10-02T16:08:21.872Z,5.00
2022-10-02T16:14:22.474Z,6.73
2022-10-02T16:20:05.097Z,4.07
2022-10-02T16:25:43.655Z,5.37
2022-10-02T16:31:17.773Z,6.30
2022-10-02T16:37:01.008Z,5.13
2022-10-02T16:43:12.357Z,3.53
2022-10-02T16:48:45.463Z,2.90
2022-10-02T16:54:21.296Z,5.30
2022-10-02T17:00:15.288Z,7.57
2022-10-02T17:06:15.626Z,6.37
2022-10-02T17:11:44.642Z,8.03
2022-10-02T17:17:11.494Z,10.57
2022-10-02T17:23:12.977Z,7.75
2022-10-02T17:29:10.440Z,9.25
2022-10-02T17:34:38.844Z,10.28
2022-10-02T17:40:30.806Z,10.30
2022-10-02T17:46:24.693Z,15.33
2022-10-02T17:51:53.238Z,13.87
2022-10-02T17:57:47.048Z,12.80
2022-10-02T18:03:17.046Z,11.80
2022-10-02T18:08:55.712Z,14.90
2022-10-02T18:14:37.387Z,15.30
2022-10-02T18:20:48.708Z,13.93
2022-10-02T18:26:53.260Z,14.70
2022-10-02T18:32:37.913Z,12.65
2022-10-02T18:44:34.844Z,12.40
2022-10-02T18:50:23.011Z,13.43
2022-10-02T18:56:14.768Z,11.90
2022-10-02T19:02:18.395Z,17.40
2022-10-02T19:07:45.202Z,12.87
2022-10-02T19:13:18.625Z,10.50
2022-10-02T19:18:43.706Z,11.90
2022-10-02T19:24:15.413Z,11.67
2022-10-02T19:29:56.683Z,10.27
2022-10-02T19:35:31.362Z,15.43
2022-10-02T19:40:57.633Z,13.87
2022-10-02T19:46:21.955Z,18.03
2022-10-02T19:51:51.076Z,11.87
2022-10-02T19:57:18.476Z,15.83
2022-10-02T20:02:48.021Z,13.70
2022-10-02T20:08:14.952Z,17.33
2022-10-02T20:13:57.144Z,17.60
2022-10-02T20:19:28.894Z,12.82
2022-10-02T20:25:03.868Z,17.67
2022-10-02T20:30:46.182Z,13.43
2022-10-02T20:36:28.709Z,22.27
2022-10-02T20:41:56.030Z,16.27
2022-10-02T20:47:54.871Z,12.83
2022-10-02T20:53:37.687Z,12.07
2022-10-02T20:59:30.264Z,9.00
2022-10-02T21:05:11.836Z,15.17
2022-10-02T21:11:14.614Z,16.87
2022-10-02T21:17:04.840Z,13.60
2022-10-02T21:23:16.743Z,10.73
2022-10-02T21:29:32.937Z,12.07
2022-10-02T21:40:45.770Z,9.23
2022-10-02T21:46:41.567Z,8.07
2022-10-02T21:52:17.248Z,11.37
2022-10-02T21:58:01.850Z,8.23
2022-10-02T22:04:08.967Z,12.07
2022-10-02T22:09:45.126Z,12.97
2022-10-02T22:15:24.975Z,8.60
2022-10-02T22:21:16.304Z,8.27
2022-10-02T22:27:02.613Z,9.90
2022-10-02T22:33:05.939Z,10.43
2022-10-02T22:38:50.797Z,8.27
2022-10-02T22:44:26.471Z,8.70
2022-10-02T22:50:00.148Z,6.75
2022-10-02T22:55:53.990Z,11.85
2022-10-02T23:01:27.350Z,8.27
2022-10-02T23:07:09.938Z,6.05
2022-10-02T23:12:54.363Z,8.57
2022-10-02T23:18:50.752Z,7.73
2022-10-02T23:24:57.226Z,7.57
2022-10-02T23:30:26.429Z,7.10
2022-10-02T23:36:05.054Z,6.23
2022-10-02T23:41:50.226Z,13.47
2022-10-02T23:47:23.646Z,5.67
2022-10-02T23:53:12.086Z,5.33
2022-10-02T23:58:54.263Z,9.85
